Time;durP1;ratioP1;P1;durP2;ratioP2;P2;SDS_P1;SDS_P2;PMS_P1;PMS_P2;Temp;Humidity;BMP_temperature;BMP_pressure;BME280_temperature;BME280_humidity;BME280_pressure;Samples;Min_cycle;Max_cycle;Signal;HPM_P1;HPM_P2
2022/07/18 00:02:21;;;;;;;2.05;1.17;;;25.90;65.80;;;;;;5053563;28;20059;-24
2022/07/18 00:04:47;;;;;;;2.45;1.10;;;25.90;65.60;;;;;;5053778;28;20029;-24
2022/07/18 00:07:13;;;;;;;1.23;0.82;;;25.90;65.80;;;;;;5053928;28;20481;-24
2022/07/18 00:09:42;;;;;;;1.17;1.05;;;25.90;65.80;;;;;;5053684;28;20482;-24
2022/07/18 00:12:09;;;;;;;2.55;1.23;;;25.90;66.50;;;;;;5053413;28;20028;-24
2022/07/18 00:14:36;;;;;;;3.60;1.00;;;25.90;65.60;;;;;;5052690;28;20041;-25
2022/07/18 00:17:02;;;;;;;1.35;1.05;;;25.80;65.70;;;;;;5052655;28;20025;-25
2022/07/18 00:19:28;;;;;;;2.42;1.17;;;25.80;65.70;;;;;;5052367;28;20032;-25
2022/07/18 00:21:54;;;;;;;1.88;1.33;;;25.80;65.50;;;;;;5052592;28;20025;-24
2022/07/18 00:24:19;;;;;;;1.40;0.98;;;25.80;65.50;;;;;;5052945;28;20138;-24
2022/07/18 00:26:45;;;;;;;1.30;1.10;;;25.80;65.60;;;;;;5053206;28;20025;-24
2022/07/18 00:29:11;;;;;;;2.58;1.02;;;25.80;65.60;;;;;;5051509;28;20386;-24
2022/07/18 00:31:38;;;;;;;3.55;1.17;;;25.80;65.60;;;;;;5051573;28;20100;-24
2022/07/18 00:34:04;;;;;;;2.42;1.30;;;25.80;65.60;;;;;;5052873;28;20092;-24
2022/07/18 00:36:30;;;;;;;1.52;0.95;;;25.80;65.60;;;;;;5052705;28;20029;-24
2022/07/18 00:38:56;;;;;;;2.10;0.90;;;25.80;65.60;;;;;;5052483;28;20028;-24
2022/07/18 00:41:22;;;;;;;3.78;1.10;;;25.80;65.50;;;;;;5052605;28;20021;-24
2022/07/18 00:43:48;;;;;;;3.03;1.30;;;25.80;65.50;;;;;;5052223;28;20017;-25
2022/07/18 00:46:14;;;;;;;1.63;1.02;;;25.70;65.50;;;;;;5052933;28;20017;-24
2022/07/18 00:48:41;;;;;;;3.58;1.10;;;25.70;65.70;;;;;;5052326;28;20450;-24
2022/07/18 00:51:07;;;;;;;2.60;1.05;;;25.70;65.50;;;;;;5052512;28;20025;-24
2022/07/18 00:53:33;;;;;;;2.97;0.98;;;25.70;65.40;;;;;;5052370;28;20032;-24
2022/07/18 00:56:00;;;;;;;1.58;1.02;;;25.70;65.50;;;;;;5052397;28;20032;-24
2022/07/18 00:58:26;;;;;;;2.92;1.13;;;25.70;65.50;;;;;;5052435;28;20108;-24
2022/07/18 01:03:36;;;;;;;1.80;1.00;;;25.70;65.40;;;;;;5052083;28;20032;-24
2022/07/18 01:06:02;;;;;;;3.67;1.25;;;25.60;65.40;;;;;;5052005;28;20029;-24
2022/07/18 01:08:28;;;;;;;1.25;0.90;;;25.60;65.50;;;;;;5051601;28;20029;-24
2022/07/18 01:10:54;;;;;;;2.85;0.90;;;25.60;65.40;;;;;;5051934;28;20162;-24
2022/07/18 01:13:20;;;;;;;3.08;1.20;;;25.60;65.50;;;;;;5051778;28;20045;-24
2022/07/18 01:15:46;;;;;;;3.28;0.98;;;25.60;65.50;;;;;;5052453;28;20032;-24
2022/07/18 01:18:12;;;;;;;1.88;0.95;;;25.60;65.40;;;;;;5051871;28;20588;-24
2022/07/18 01:20:38;;;;;;;2.22;1.20;;;25.60;65.60;;;;;;5052212;28;20029;-24
2022/07/18 01:23:04;;;;;;;2.00;1.00;;;25.60;65.50;;;;;;5052331;28;20025;-24
2022/07/18 01:25:30;;;;;;;1.67;1.08;;;25.60;65.70;;;;;;5052004;28;20025;-24
2022/07/18 01:27:56;;;;;;;1.75;1.02;;;25.60;65.50;;;;;;5051876;28;20031;-24
2022/07/18 01:30:23;;;;;;;1.20;0.95;;;25.50;65.50;;;;;;5050176;28;20079;-24
2022/07/18 01:32:59;;;;;;;1.83;1.10;;;25.50;65.40;;;;;;5051822;28;20394;-24
2022/07/18 01:35:26;;;;;;;2.13;1.27;;;25.50;65.50;;;;;;5052066;28;20075;-24
2022/07/18 01:37:57;;;;;;;3.08;1.00;;;25.50;65.40;;;;;;5052056;28;20033;-24
2022/07/18 01:40:23;;;;;;;3.08;1.30;;;25.50;65.30;;;;;;5051593;28;20021;-24
2022/07/18 01:42:49;;;;;;;3.28;1.10;;;25.50;65.40;;;;;;5051773;28;20438;-24
2022/07/18 01:45:16;;;;;;;1.77;1.25;;;25.50;65.40;;;;;;5051924;28;20056;-24
2022/07/18 01:47:42;;;;;;;3.78;1.15;;;25.50;65.40;;;;;;5051849;28;20025;-24
2022/07/18 01:50:10;;;;;;;2.05;0.93;;;25.50;65.40;;;;;;5051600;28;20017;-24
2022/07/18 01:52:36;;;;;;;2.88;1.05;;;25.50;65.40;;;;;;5051422;28;20036;-25
2022/07/18 01:55:02;;;;;;;1.45;1.10;;;25.50;65.40;;;;;;5051394;28;20025;-25
2022/07/18 01:57:28;;;;;;;4.40;1.25;;;25.50;65.40;;;;;;5051128;28;20479;-25
2022/07/18 01:59:54;;;;;;;2.20;1.08;;;25.50;65.40;;;;;;5051172;28;20017;-24
2022/07/18 02:02:19;;;;;;;5.15;1.20;;;25.50;65.40;;;;;;5050113;28;20021;-24
2022/07/18 02:05:00;;;;;;;2.60;1.35;;;25.50;65.30;;;;;;5051422;28;20021;-24
2022/07/18 02:07:31;;;;;;;2.20;0.93;;;25.40;65.20;;;;;;5051301;28;20104;-24
2022/07/18 02:09:58;;;;;;;2.20;1.10;;;25.40;65.30;;;;;;5051120;28;20478;-24
2022/07/18 02:12:24;;;;;;;2.05;1.20;;;25.40;65.40;;;;;;5054488;28;20103;-24
2022/07/18 02:14:50;;;;;;;1.90;0.85;;;25.40;65.40;;;;;;5054919;28;20033;-25
2022/07/18 02:17:16;;;;;;;1.42;1.00;;;25.40;65.40;;;;;;5054935;28;20025;-25
2022/07/18 02:19:42;;;;;;;2.65;1.17;;;25.40;65.40;;;;;;5055056;28;20070;-24
2022/07/18 02:22:08;;;;;;;2.15;1.05;;;25.40;65.50;;;;;;5036943;28;20025;-24
2022/07/18 02:24:33;;;;;;;1.90;1.10;;;25.40;65.40;;;;;;5054711;28;20470;-24
2022/07/18 02:27:00;;;;;;;1.98;1.10;;;25.40;65.40;;;;;;5054938;28;20355;-25
2022/07/18 02:29:26;;;;;;;1.10;0.80;;;25.30;65.30;;;;;;5053360;28;20025;-25
2022/07/18 02:31:52;;;;;;;3.05;1.10;;;25.40;65.50;;;;;;5054649;28;20025;-24
2022/07/18 02:34:17;;;;;;;4.20;1.15;;;25.40;65.40;;;;;;5053557;28;20031;-24
2022/07/18 02:36:43;;;;;;;2.70;1.10;;;25.40;65.50;;;;;;5054923;28;20017;-24
2022/07/18 02:39:09;;;;;;;1.77;1.08;;;25.40;65.50;;;;;;5054482;28;20029;-24
2022/07/18 02:41:35;;;;;;;2.00;1.20;;;25.30;65.30;;;;;;5054526;28;20090;-24
2022/07/18 02:44:02;;;;;;;1.55;0.85;;;25.30;65.40;;;;;;5054678;28;20367;-24
2022/07/18 02:46:28;;;;;;;1.88;1.17;;;25.30;65.40;;;;;;5054620;28;20163;-24
2022/07/18 02:48:53;;;;;;;2.13;1.02;;;25.30;65.50;;;;;;5054401;28;20518;-24
2022/07/18 02:51:19;;;;;;;1.30;1.00;;;25.30;65.40;;;;;;5054578;28;20060;-24
2022/07/18 02:53:45;;;;;;;1.77;1.00;;;25.30;65.40;;;;;;5054785;28;20025;-24
2022/07/18 02:56:11;;;;;;;1.83;1.08;;;25.30;65.40;;;;;;5055949;28;20033;-24
2022/07/18 02:58:36;;;;;;;2.13;1.40;;;25.30;65.40;;;;;;5055326;28;20111;-25
2022/07/18 03:01:03;;;;;;;4.28;1.40;;;25.30;65.40;;;;;;5054698;28;20023;-24
2022/07/18 03:03:28;;;;;;;3.65;1.10;;;25.30;65.50;;;;;;5054038;28;20028;-25
2022/07/18 03:05:54;;;;;;;1.33;0.80;;;25.20;65.40;;;;;;5054089;28;20024;-25
2022/07/18 03:08:19;;;;;;;1.30;0.88;;;25.30;65.60;;;;;;5053640;28;20032;-25
2022/07/18 03:10:45;;;;;;;3.92;1.00;;;25.20;65.50;;;;;;5053929;28;20013;-25
2022/07/18 03:13:12;;;;;;;1.48;0.95;;;25.20;65.40;;;;;;5053825;28;20033;-24
2022/07/18 03:15:38;;;;;;;0.90;0.80;;;25.20;65.40;;;;;;5053924;28;20029;-25
2022/07/18 03:18:04;;;;;;;2.45;0.95;;;25.20;65.50;;;;;;5053672;28;20029;-25
2022/07/18 03:20:30;;;;;;;1.63;0.95;;;25.20;65.50;;;;;;5052292;28;20074;-25
2022/07/18 03:22:55;;;;;;;2.10;1.05;;;25.20;65.50;;;;;;5052921;28;20025;-24
2022/07/18 03:25:21;;;;;;;4.43;0.80;;;25.20;65.50;;;;;;5053721;28;20474;-24
2022/07/18 03:27:47;;;;;;;4.10;1.08;;;25.20;65.50;;;;;;5053870;28;20033;-24
2022/07/18 03:30:12;;;;;;;1.38;1.00;;;25.10;65.40;;;;;;5053433;28;20056;-24
2022/07/18 03:32:38;;;;;;;1.80;1.10;;;25.20;65.50;;;;;;5053632;28;20032;-24
2022/07/18 03:35:04;;;;;;;1.52;0.85;;;25.10;65.50;;;;;;5053552;28;20020;-24
2022/07/18 03:37:30;;;;;;;1.95;1.15;;;25.10;65.50;;;;;;5053161;28;20556;-24
2022/07/18 03:39:55;;;;;;;2.33;1.10;;;25.10;65.50;;;;;;5053248;28;20029;-24
2022/07/18 03:42:21;;;;;;;1.08;0.98;;;25.10;65.50;;;;;;5053574;28;20017;-24
2022/07/18 03:44:47;;;;;;;2.33;1.20;;;25.10;65.50;;;;;;5053264;28;20021;-24
2022/07/18 03:47:12;;;;;;;2.30;1.08;;;25.10;65.60;;;;;;5053186;28;20025;-24
2022/07/18 03:49:38;;;;;;;3.15;1.00;;;25.10;65.60;;;;;;5053022;28;20052;-25
2022/07/18 03:52:04;;;;;;;4.68;1.30;;;25.10;65.50;;;;;;5053042;28;20035;-25
2022/07/18 03:54:30;;;;;;;2.03;1.00;;;25.10;65.50;;;;;;5053109;28;20032;-24
2022/07/18 03:56:55;;;;;;;1.35;0.90;;;25.00;65.50;;;;;;5053132;28;20292;-24
2022/07/18 03:59:21;;;;;;;2.88;0.95;;;25.00;65.50;;;;;;5052877;28;20062;-24
2022/07/18 04:01:46;;;;;;;2.72;1.08;;;25.00;65.60;;;;;;5053004;28;20025;-24
2022/07/18 04:04:12;;;;;;;2.35;0.80;;;25.00;65.60;;;;;;5052825;28;20033;-24
2022/07/18 04:06:38;;;;;;;2.42;1.10;;;25.00;65.70;;;;;;5052809;28;20032;-24
2022/07/18 04:09:04;;;;;;;2.53;1.10;;;25.00;65.60;;;;;;5052591;28;20029;-24
2022/07/18 04:11:30;;;;;;;2.10;1.20;;;24.90;65.50;;;;;;5052765;28;20437;-25
2022/07/18 04:13:56;;;;;;;1.27;1.00;;;25.00;65.70;;;;;;5052615;28;20095;-25
2022/07/18 04:16:22;;;;;;;2.47;0.95;;;24.90;65.70;;;;;;5052736;28;20067;-24
2022/07/18 04:18:49;;;;;;;3.53;1.35;;;25.00;65.70;;;;;;5052439;28;20033;-24
2022/07/18 04:21:15;;;;;;;2.38;1.10;;;24.90;65.70;;;;;;5052494;28;20718;-24
2022/07/18 04:23:41;;;;;;;2.90;1.30;;;24.90;65.70;;;;;;5052626;28;20474;-23
2022/07/18 04:26:07;;;;;;;2.15;0.95;;;24.90;65.70;;;;;;5052523;28;20022;-24
2022/07/18 04:28:33;;;;;;;2.35;1.23;;;24.90;65.70;;;;;;5052196;28;20087;-24
2022/07/18 04:30:59;;;;;;;1.80;1.13;;;24.90;65.80;;;;;;5052424;28;20032;-23
2022/07/18 04:33:24;;;;;;;4.78;1.10;;;24.90;65.70;;;;;;5052884;28;20106;-24
2022/07/18 04:35:50;;;;;;;3.50;0.93;;;24.90;65.80;;;;;;5051555;28;20029;-24
2022/07/18 04:38:16;;;;;;;3.35;0.98;;;24.90;65.80;;;;;;5052262;28;20025;-24
2022/07/18 04:40:41;;;;;;;1.77;1.05;;;24.90;65.80;;;;;;5052630;28;20025;-24
2022/07/18 04:43:07;;;;;;;1.35;0.75;;;24.90;65.80;;;;;;5059445;28;20021;-24
2022/07/18 04:45:34;;;;;;;1.88;0.82;;;24.90;65.90;;;;;;5063909;28;20390;-24
2022/07/18 04:48:00;;;;;;;1.30;1.00;;;24.80;65.70;;;;;;5061685;28;20029;-24
2022/07/18 04:50:26;;;;;;;3.05;1.20;;;24.80;65.80;;;;;;5052485;28;20025;-24
2022/07/18 04:52:53;;;;;;;1.50;0.90;;;24.80;65.80;;;;;;5052926;28;20032;-24
2022/07/18 04:55:21;;;;;;;2.10;0.80;;;24.80;65.90;;;;;;5052536;28;20025;-24
2022/07/18 04:57:47;;;;;;;3.40;1.00;;;24.80;65.80;;;;;;5052627;28;20397;-24
2022/07/18 05:00:16;;;;;;;3.95;1.00;;;24.80;65.90;;;;;;5052276;28;20505;-24
2022/07/18 05:02:43;;;;;;;1.95;1.08;;;24.80;65.90;;;;;;5052287;28;20074;-24
2022/07/18 05:05:13;;;;;;;2.67;1.10;;;24.80;65.90;;;;;;5052123;28;20142;-25
2022/07/18 05:07:40;;;;;;;3.17;1.15;;;24.80;65.90;;;;;;5052224;28;20024;-25
2022/07/18 05:10:07;;;;;;;2.20;0.93;;;24.80;65.90;;;;;;5051979;28;20036;-25
2022/07/18 05:12:37;;;;;;;1.60;1.00;;;24.80;65.90;;;;;;5051931;28;20029;-25
2022/07/18 05:15:11;;;;;;;2.15;1.00;;;24.80;66.00;;;;;;5058499;22;20045;-26
2022/07/18 05:17:37;;;;;;;1.50;0.90;;;24.80;66.00;;;;;;5031837;28;20029;-26
2022/07/18 05:20:05;;;;;;;3.72;1.17;;;24.80;66.00;;;;;;5031876;28;20049;-27
2022/07/18 05:22:33;;;;;;;2.88;1.13;;;24.80;66.10;;;;;;5031950;28;20018;-26
2022/07/18 05:24:59;;;;;;;3.03;1.17;;;24.80;66.10;;;;;;5031840;28;20100;-26
2022/07/18 05:27:24;;;;;;;3.20;1.13;;;24.80;66.10;;;;;;5031813;28;20465;-26
2022/07/18 05:29:50;;;;;;;2.47;1.10;;;24.80;66.10;;;;;;5031562;28;20029;-26
2022/07/18 05:32:16;;;;;;;4.95;1.10;;;24.80;66.20;;;;;;5031780;28;20034;-26
2022/07/18 05:34:53;;;;;;;1.58;1.15;;;24.80;66.20;;;;;;5031700;28;20060;-26
2022/07/18 05:37:19;;;;;;;2.67;1.30;;;24.80;66.20;;;;;;5031723;28;20032;-26
2022/07/18 05:39:45;;;;;;;2.65;1.08;;;24.80;66.20;;;;;;5031568;28;20051;-26
2022/07/18 05:42:10;;;;;;;1.45;0.93;;;24.80;66.20;;;;;;5031757;28;20088;-26
2022/07/18 05:44:36;;;;;;;1.25;1.02;;;24.80;66.30;;;;;;5031539;28;20013;-26
2022/07/18 05:47:02;;;;;;;1.27;0.90;;;24.80;66.30;;;;;;5034376;28;20025;-26
2022/07/18 05:49:27;;;;;;;1.55;1.00;;;24.80;66.40;;;;;;5035383;28;20228;-26
2022/07/18 05:51:53;;;;;;;2.47;1.13;;;24.80;66.40;;;;;;5035677;28;20079;-26
2022/07/18 05:54:19;;;;;;;2.42;1.00;;;24.80;66.40;;;;;;5035655;28;20021;-26
2022/07/18 05:56:53;;;;;;;2.65;1.10;;;24.80;66.50;;;;;;5035503;28;20021;-26
2022/07/18 05:59:20;;;;;;;5.88;1.17;;;24.80;66.60;;;;;;5035140;28;20026;-26
2022/07/18 06:01:47;;;;;;;2.55;1.10;;;24.80;66.60;;;;;;5035462;28;20167;-26
2022/07/18 06:04:13;;;;;;;4.13;1.20;;;24.80;66.60;;;;;;5035240;28;20026;-26
2022/07/18 06:06:39;;;;;;;2.42;1.00;;;24.80;66.70;;;;;;5035422;28;20097;-26
2022/07/18 06:09:06;;;;;;;3.40;1.00;;;24.80;66.80;;;;;;5035076;28;20049;-26
2022/07/18 06:11:32;;;;;;;2.80;1.20;;;24.80;66.80;;;;;;5035165;28;20033;-26
2022/07/18 06:13:57;;;;;;;3.42;1.38;;;24.80;67.00;;;;;;5034967;28;20041;-26
2022/07/18 06:16:23;;;;;;;2.88;1.08;;;24.80;67.00;;;;;;5035155;28;20026;-26
2022/07/18 06:18:49;;;;;;;3.40;1.70;;;24.80;67.10;;;;;;5034739;28;20479;-26
2022/07/18 06:21:14;;;;;;;7.70;1.52;;;24.80;67.10;;;;;;5034971;28;20047;-26
2022/07/18 06:23:40;;;;;;;10.93;1.40;;;24.50;68.90;;;;;;5034900;28;20045;-27
2022/07/18 06:26:06;;;;;;;6.18;1.45;;;24.00;69.90;;;;;;5034733;28;20022;-26
2022/07/18 06:28:32;;;;;;;4.70;1.13;;;23.70;70.90;;;;;;5034563;28;20037;-27
2022/07/18 06:30:58;;;;;;;4.93;1.40;;;23.30;72.00;;;;;;5034759;28;20104;-27
2022/07/18 06:33:26;;;;;;;9.63;1.42;;;23.10;72.50;;;;;;5034611;28;20036;-27
2022/07/18 06:35:52;;;;;;;4.60;1.50;;;22.90;72.80;;;;;;5034714;28;20027;-26
2022/07/18 06:38:18;;;;;;;6.00;1.70;;;22.80;72.70;;;;;;5034351;28;20430;-26
2022/07/18 06:40:44;;;;;;;7.45;1.50;;;22.70;72.50;;;;;;5034472;28;20025;-26
2022/07/18 06:43:10;;;;;;;6.05;1.40;;;22.70;72.90;;;;;;5034406;28;20443;-26
2022/07/18 06:45:36;;;;;;;3.85;1.45;;;22.60;72.10;;;;;;5034544;28;20045;-26
2022/07/18 06:48:02;;;;;;;4.72;1.13;;;22.60;71.90;;;;;;5034306;28;20068;-26
2022/07/18 06:50:27;;;;;;;4.05;1.15;;;22.70;72.00;;;;;;5034254;28;20430;-26
2022/07/18 06:52:53;;;;;;;5.55;1.40;;;22.70;71.90;;;;;;5034351;28;20090;-26
2022/07/18 06:55:19;;;;;;;5.65;1.25;;;22.80;72.10;;;;;;5034097;28;20029;-26
2022/07/18 06:57:45;;;;;;;5.57;1.67;;;22.80;72.00;;;;;;5033247;28;20101;-26
2022/07/18 07:00:13;;;;;;;4.95;1.50;;;22.90;72.60;;;;;;5034093;28;20022;-26
2022/07/18 07:02:41;;;;;;;4.65;1.25;;;22.90;73.30;;;;;;5034154;28;20022;-26
2022/07/18 07:05:08;;;;;;;3.63;1.13;;;23.00;73.20;;;;;;5034162;28;20021;-26
2022/07/18 07:07:33;;;;;;;4.70;1.30;;;23.00;72.70;;;;;;5034283;28;20400;-26
2022/07/18 07:09:59;;;;;;;4.07;1.42;;;23.20;72.40;;;;;;5033865;28;20034;-26
2022/07/18 07:12:24;;;;;;;4.35;1.13;;;23.40;71.90;;;;;;5034165;28;20028;-26
2022/07/18 07:14:50;;;;;;;3.30;1.27;;;23.60;71.40;;;;;;5033929;28;20088;-26
2022/07/18 07:17:16;;;;;;;5.40;1.27;;;23.80;71.00;;;;;;5034212;28;20037;-26
2022/07/18 07:19:41;;;;;;;4.57;1.30;;;24.00;70.70;;;;;;5033817;28;20429;-26
2022/07/18 07:22:07;;;;;;;3.80;1.10;;;24.10;70.40;;;;;;5033947;28;20055;-26
2022/07/18 07:24:33;;;;;;;4.80;1.42;;;24.20;70.20;;;;;;5033659;28;20047;-26
2022/07/18 07:27:00;;;;;;;5.25;1.38;;;24.20;70.00;;;;;;5033858;28;20037;-26
2022/07/18 07:29:25;;;;;;;4.20;1.15;;;24.40;70.00;;;;;;5033591;28;20064;-26
2022/07/18 07:31:51;;;;;;;4.95;1.25;;;24.40;69.80;;;;;;5033782;28;20474;-26
2022/07/18 07:34:16;;;;;;;4.35;1.35;;;24.50;69.80;;;;;;5033772;28;20028;-27
2022/07/18 07:36:42;;;;;;;3.90;1.23;;;24.50;69.80;;;;;;5033676;28;20017;-26
2022/07/18 07:39:08;;;;;;;5.10;1.10;;;24.50;69.70;;;;;;5033198;28;20025;-26
2022/07/18 07:41:34;;;;;;;7.22;1.38;;;24.50;69.70;;;;;;5033568;28;20028;-26
2022/07/18 07:44:01;;;;;;;4.50;1.00;;;24.50;69.70;;;;;;5033433;28;20143;-26
2022/07/18 07:46:27;;;;;;;3.85;1.20;;;24.50;69.60;;;;;;5033443;28;20018;-26
2022/07/18 07:48:52;;;;;;;1.85;1.25;;;24.60;69.70;;;;;;5033213;28;20026;-26
2022/07/18 07:51:18;;;;;;;3.95;1.60;;;24.60;69.50;;;;;;5033352;28;20029;-26
2022/07/18 07:53:44;;;;;;;7.03;1.52;;;24.60;68.20;;;;;;5033098;28;20048;-26
2022/07/18 07:56:10;;;;;;;13.45;1.33;;;24.50;66.20;;;;;;5033393;28;20025;-26
2022/07/18 07:58:36;;;;;;;4.55;1.48;;;24.50;66.40;;;;;;5032947;28;20099;-26
2022/07/18 08:01:02;;;;;;;4.20;1.50;;;24.60;66.60;;;;;;5033509;28;20029;-26
2022/07/18 08:03:27;;;;;;;6.75;1.45;;;24.60;66.60;;;;;;5033090;28;20475;-26
2022/07/18 08:05:53;;;;;;;5.28;1.40;;;24.60;66.80;;;;;;5033110;28;20067;-26
2022/07/18 08:08:19;;;;;;;6.55;1.20;;;24.70;67.00;;;;;;5032715;28;20079;-26
2022/07/18 08:10:46;;;;;;;4.90;1.30;;;24.70;67.10;;;;;;5032888;28;20124;-26
2022/07/18 08:13:13;;;;;;;5.90;1.02;;;24.70;67.10;;;;;;5032789;28;20028;-26
2022/07/18 08:15:38;;;;;;;3.45;1.40;;;24.80;67.20;;;;;;5032933;28;20029;-26
2022/07/18 08:18:04;;;;;;;6.38;1.70;;;24.80;67.20;;;;;;5032667;28;20025;-26
2022/07/18 08:20:31;;;;;;;5.30;1.10;;;24.80;67.30;;;;;;5032594;28;20109;-26
2022/07/18 08:22:56;;;;;;;5.38;1.48;;;24.80;67.40;;;;;;5032675;28;20021;-27
2022/07/18 08:25:23;;;;;;;2.55;1.20;;;24.80;67.40;;;;;;5032646;28;20043;-26
2022/07/18 08:27:48;;;;;;;3.38;1.20;;;24.90;67.50;;;;;;5032868;28;20021;-26
2022/07/18 08:30:14;;;;;;;3.80;1.13;;;24.90;67.50;;;;;;5032509;28;20371;-26
2022/07/18 08:32:40;;;;;;;4.65;1.30;;;24.90;67.50;;;;;;5032592;28;20598;-26
2022/07/18 08:35:06;;;;;;;8.65;1.30;;;24.90;67.50;;;;;;5032489;28;20021;-26
2022/07/18 08:37:32;;;;;;;3.42;1.10;;;24.90;67.50;;;;;;5032321;28;20029;-26
2022/07/18 08:39:57;;;;;;;4.85;1.17;;;24.90;67.40;;;;;;5032297;28;20022;-26
2022/07/18 08:42:25;;;;;;;2.55;1.10;;;24.90;67.50;;;;;;5014919;28;20099;-26
2022/07/18 08:44:55;;;;;;;2.95;1.10;;;24.90;67.50;;;;;;5032312;28;20029;-26
2022/07/18 08:47:21;;;;;;;4.22;1.02;;;24.90;67.60;;;;;;5032344;28;20494;-26
2022/07/18 08:49:48;;;;;;;3.75;1.20;;;24.90;67.50;;;;;;5032043;28;20025;-26
2022/07/18 08:52:15;;;;;;;2.97;1.10;;;24.90;67.60;;;;;;5032257;28;20047;-26
2022/07/18 08:54:41;;;;;;;2.65;1.23;;;24.90;67.60;;;;;;5032233;28;20108;-26
2022/07/18 08:57:07;;;;;;;2.10;0.90;;;25.00;67.10;;;;;;5032183;28;20366;-26
2022/07/18 08:59:33;;;;;;;3.53;1.17;;;25.00;67.40;;;;;;5014311;28;20059;-26
2022/07/18 09:01:58;;;;;;;3.05;1.02;;;25.00;65.90;;;;;;5032166;28;20478;-26
2022/07/18 09:04:40;;;;;;;9.82;1.10;;;25.20;63.60;;;;;;5032029;28;20034;-26
2022/07/18 09:07:08;;;;;;;3.10;1.00;;;25.30;63.60;;;;;;5032098;28;20036;-26
2022/07/18 09:09:35;;;;;;;2.45;1.13;;;25.40;63.90;;;;;;5032060;28;20033;-26
2022/07/18 09:12:03;;;;;;;2.03;1.17;;;25.30;64.20;;;;;;5032086;28;20087;-26
2022/07/18 09:14:34;;;;;;;1.55;0.88;;;25.40;64.70;;;;;;5031787;28;20518;-26
2022/07/18 09:17:07;;;;;;;5.78;1.20;;;25.30;64.80;;;;;;5031844;28;20050;-26
2022/07/18 09:19:33;;;;;;;4.75;1.17;;;25.40;65.10;;;;;;5032063;28;20466;-26
2022/07/18 09:22:17;;;;;;;3.25;1.20;;;25.30;65.00;;;;;;5031463;28;20029;-26
2022/07/18 09:25:11;;;;;;;6.80;1.02;;;25.40;64.10;;;;;;5031795;28;20033;-26
2022/07/18 09:27:40;;;;;;;6.25;1.40;;;25.70;62.60;;;;;;5029761;28;20087;-26
2022/07/18 09:30:17;;;;;;;5.97;1.20;;;26.10;63.10;;;;;;5031654;28;20026;-27
2022/07/18 09:32:51;;;;;;;3.85;1.08;;;26.40;62.30;;;;;;5031909;28;20497;-27
2022/07/18 09:35:26;;;;;;;4.25;1.30;;;26.50;62.30;;;;;;5031775;28;20029;-27
2022/07/18 09:37:58;;;;;;;4.50;1.08;;;26.50;62.50;;;;;;5031598;28;20438;-27
2022/07/18 09:40:32;;;;;;;4.13;1.30;;;26.50;62.70;;;;;;5031600;28;20049;-27
2022/07/18 09:43:12;;;;;;;5.25;1.58;;;26.50;62.90;;;;;;5031738;28;20022;-27
2022/07/18 09:45:39;;;;;;;1.95;1.25;;;26.50;63.10;;;;;;5031754;28;20467;-26
2022/07/18 09:48:10;;;;;;;5.85;1.27;;;26.50;63.30;;;;;;5031548;28;20053;-26
2022/07/18 09:50:58;;;;;;;4.82;1.50;;;26.50;63.50;;;;;;5031621;28;20024;-26
2022/07/18 09:53:31;;;;;;;5.32;1.35;;;26.50;63.60;;;;;;5031648;28;20478;-26
2022/07/18 09:55:59;;;;;;;3.15;1.30;;;26.40;63.70;;;;;;5031651;28;20033;-26
2022/07/18 09:58:29;;;;;;;2.58;1.23;;;26.40;63.90;;;;;;5031260;28;20071;-26
2022/07/18 10:00:58;;;;;;;4.15;1.40;;;26.40;64.00;;;;;;5031490;28;20029;-26
2022/07/18 10:03:24;;;;;;;3.50;1.20;;;26.40;64.00;;;;;;5031473;28;20017;-26
2022/07/18 10:05:52;;;;;;;2.10;1.20;;;26.40;64.20;;;;;;5031559;28;20026;-26
2022/07/18 10:08:20;;;;;;;1.77;1.08;;;26.40;64.30;;;;;;5031273;28;20032;-27
2022/07/18 10:10:48;;;;;;;2.85;1.40;;;26.30;64.30;;;;;;5031472;28;20018;-26
2022/07/18 10:13:14;;;;;;;2.10;1.38;;;26.30;64.40;;;;;;5031087;28;20025;-26
2022/07/18 10:15:43;;;;;;;4.13;1.35;;;26.30;64.40;;;;;;5031530;28;20036;-27
2022/07/18 10:18:11;;;;;;;3.13;1.38;;;26.40;64.60;;;;;;5031195;28;20545;-27
2022/07/18 10:20:38;;;;;;;2.17;1.30;;;26.30;64.50;;;;;;5031354;28;20025;-26
2022/07/18 10:23:24;;;;;;;1.27;1.00;;;26.30;64.40;;;;;;5013541;28;20076;-26
2022/07/18 10:26:15;;;;;;;2.25;1.10;;;26.30;64.50;;;;;;5031252;28;20095;-26
2022/07/18 10:28:55;;;;;;;1.40;1.17;;;26.40;64.50;;;;;;5031102;28;20022;-26
2022/07/18 10:31:31;;;;;;;1.58;1.13;;;26.40;64.60;;;;;;5031291;28;20021;-26
2022/07/18 10:34:06;;;;;;;2.67;1.30;;;26.40;64.20;;;;;;5033455;28;20021;-26
2022/07/18 10:36:33;;;;;;;3.97;1.45;;;26.40;64.60;;;;;;5034757;28;20032;-26
2022/07/18 10:39:12;;;;;;;1.77;1.10;;;26.40;64.40;;;;;;5034446;28;20021;-26
2022/07/18 10:41:44;;;;;;;2.60;1.20;;;26.40;64.50;;;;;;5034688;28;20025;-26
2022/07/18 10:44:28;;;;;;;1.70;1.13;;;26.50;64.30;;;;;;5034578;28;20022;-27
2022/07/18 10:47:03;;;;;;;2.00;1.33;;;26.50;64.50;;;;;;5034704;28;20017;-27
2022/07/18 10:49:52;;;;;;;1.63;1.20;;;26.50;64.50;;;;;;5034407;28;20399;-26
2022/07/18 10:52:30;;;;;;;3.70;1.20;;;26.50;64.40;;;;;;5034623;28;20104;-26
2022/07/18 10:55:01;;;;;;;1.88;1.10;;;26.50;64.70;;;;;;5034300;28;20036;-26
2022/07/18 10:57:31;;;;;;;1.58;1.30;;;26.50;64.50;;;;;;5034404;28;20052;-27
2022/07/18 11:00:13;;;;;;;2.00;1.10;;;26.50;64.40;;;;;;5034179;28;20024;-26
2022/07/18 11:03:00;;;;;;;2.85;1.20;;;26.60;64.30;;;;;;5034351;28;20033;-26
2022/07/18 11:05:26;;;;;;;2.28;1.30;;;26.60;64.30;;;;;;5034691;28;20060;-27
2022/07/18 11:08:17;;;;;;;2.00;1.30;;;26.60;64.30;;;;;;5034171;28;20053;-26
2022/07/18 11:10:55;;;;;;;1.85;1.13;;;26.60;64.30;;;;;;5025532;28;20116;-26
2022/07/18 11:13:30;;;;;;;3.22;1.15;;;26.60;64.40;;;;;;5033827;28;20099;-27
2022/07/18 11:16:12;;;;;;;5.53;1.00;;;26.70;61.40;;;;;;5057982;22;20052;-25
2022/07/18 11:18:44;;;;;;;3.85;1.20;;;26.80;59.10;;;;;;5036720;28;20037;-25
2022/07/18 11:21:20;;;;;;;3.17;1.23;;;27.10;59.40;;;;;;5034460;28;20021;-24
2022/07/18 11:23:52;;;;;;;3.70;1.20;;;27.40;58.30;;;;;;5034223;28;20104;-24
2022/07/18 11:26:20;;;;;;;3.25;1.13;;;27.50;58.70;;;;;;5033853;28;20538;-25
2022/07/18 11:28:48;;;;;;;5.30;1.20;;;27.50;59.00;;;;;;5033815;28;20529;-26
2022/07/18 11:31:15;;;;;;;2.80;1.35;;;27.40;59.20;;;;;;5036460;28;20441;-24
2022/07/18 11:33:47;;;;;;;3.42;1.20;;;27.30;59.40;;;;;;5048657;28;20021;-24
2022/07/18 11:36:16;;;;;;;2.42;1.23;;;27.20;59.60;;;;;;5044693;28;20029;-25
2022/07/18 11:38:55;;;;;;;1.33;1.10;;;27.20;60.00;;;;;;5016655;28;20032;-25
2022/07/18 11:41:21;;;;;;;1.60;1.30;;;27.20;60.30;;;;;;5034241;28;20048;-25
2022/07/18 11:43:51;;;;;;;1.90;1.25;;;27.10;61.00;;;;;;5033501;28;20028;-24
2022/07/18 11:46:19;;;;;;;3.10;1.10;;;27.10;60.60;;;;;;5033708;28;20049;-24
2022/07/18 11:48:47;;;;;;;2.00;1.10;;;27.10;60.90;;;;;;5033741;28;20037;-25
2022/07/18 11:51:15;;;;;;;2.45;1.30;;;27.10;61.00;;;;;;5033804;28;20029;-24
2022/07/18 11:53:45;;;;;;;4.07;1.13;;;27.00;61.10;;;;;;5033984;28;20096;-25
2022/07/18 11:56:12;;;;;;;3.38;1.05;;;27.10;61.50;;;;;;5033518;28;20032;-25
2022/07/18 11:58:39;;;;;;;1.52;1.27;;;27.00;61.30;;;;;;5033406;28;20029;-24
2022/07/18 12:01:06;;;;;;;2.03;1.30;;;27.10;61.60;;;;;;5033570;28;20024;-25
2022/07/18 12:03:35;;;;;;;1.35;1.02;;;27.00;61.60;;;;;;5033302;28;20032;-25
2022/07/18 12:06:13;;;;;;;1.77;1.30;;;27.00;61.70;;;;;;5033609;28;20105;-25
2022/07/18 12:08:41;;;;;;;1.92;1.10;;;27.00;61.70;;;;;;5032999;28;20095;-25
2022/07/18 12:11:29;;;;;;;4.38;1.27;;;27.10;61.50;;;;;;5033235;28;20034;-25
2022/07/18 12:14:00;;;;;;;1.23;1.10;;;27.10;61.90;;;;;;5033122;28;20029;-25
2022/07/18 12:16:29;;;;;;;1.40;1.00;;;27.10;61.90;;;;;;5034179;28;20411;-25
2022/07/18 12:19:05;;;;;;;2.65;1.42;;;27.10;62.00;;;;;;5032794;28;20037;-25
2022/07/18 12:21:56;;;;;;;2.28;1.40;;;27.10;62.00;;;;;;5034098;28;20108;-25
2022/07/18 12:24:37;;;;;;;0.95;0.85;;;27.10;62.10;;;;;;5033833;28;20025;-25
2022/07/18 12:27:31;;;;;;;3.67;1.13;;;27.10;62.00;;;;;;5032734;28;20105;-25
2022/07/18 12:30:04;;;;;;;1.67;0.93;;;27.10;62.80;;;;;;5032977;28;20040;-25
2022/07/18 12:32:47;;;;;;;1.58;1.00;;;27.10;62.00;;;;;;5034571;28;20099;-25
2022/07/18 12:35:18;;;;;;;2.63;1.20;;;27.10;61.90;;;;;;5032699;28;20030;-24
2022/07/18 12:37:55;;;;;;;3.05;1.33;;;27.20;61.90;;;;;;5032302;28;20509;-25
2022/07/18 12:40:22;;;;;;;1.83;1.23;;;27.20;61.90;;;;;;5032335;28;20101;-25
2022/07/18 12:42:48;;;;;;;2.13;1.27;;;27.20;62.10;;;;;;5032578;28;20487;-25
2022/07/18 12:45:14;;;;;;;2.95;1.10;;;27.20;61.90;;;;;;5032422;28;20022;-25
2022/07/18 12:47:40;;;;;;;1.60;1.20;;;27.20;62.00;;;;;;5032297;28;20030;-25
2022/07/18 12:50:07;;;;;;;1.98;1.20;;;27.20;62.10;;;;;;5032244;28;20051;-25
2022/07/18 12:52:33;;;;;;;2.45;1.15;;;27.20;62.10;;;;;;5034072;28;20039;-24
2022/07/18 12:54:59;;;;;;;2.10;1.50;;;27.20;62.00;;;;;;5015501;28;20029;-24
2022/07/18 12:57:25;;;;;;;1.30;1.00;;;27.20;62.10;;;;;;5032393;28;20133;-25